Ashland, Louisiana
Current Conditions -  °F | °C
As of 1:15 PM on Tuesday 21 Oct 2014 (Local Time) from KIER Reporting Station
Clear Clear  
Wind Chill: 78°   Ceiling: Unl
Heat Index: 80°   Visibility: 10mi
Dew Point: 62°   Wind: 3mph
Humidity: 57%   Direction: 100°E
Pressure: 30.07"   Gusts: NA
Location:  32.14°N, 93.1°W
Report Text: KIER 211815Z AUTO 10003KT 10SM CLR 26/17 A3007 RMK AO2 T02570166
Loading
Personal Weather Stations






























Interactive Weather Map
Tropical Storm Tracking
New forecast layout! Learn more

10-Day Weather Forecast

Advertisements
Track Severe Weather on mobile